Newport, OR

2:27 PM PST on February 14, 2016 (GMT -0800)
Schooner Point (new) | | Change Station
CLOSE
Current Station
Personal Weather Station
Location: Newport, OR
Elevation: 120 ft
Nearby Weather Stations

Elev 120 ft 44.69 °N, 124.07 °W | Updated 7 seconds ago

Mostly Cloudy
Mostly Cloudy
53.1 °F
Feels Like 53.1 °F
N
15.0
Wind Variable Wind from SSW
Gusts 15.0 mph

Today
High -- | Low -- °F
--% Chance of Precip.
Yesterday
High -- | Low -- °F
Precip. -- in
Pressure 30.32 in
Visibility 0.2 miles
Clouds Overcast 200 ft
Dew Point 53 °F
Humidity 99%
Rainfall 0.85 in
Snow Depth Not available.
7:18 AM 5:42 PM
Waxing Crescent, 46% visible
METAR KONP 142215Z AUTO 21012KT 1/4SM -DZ OVC002 11/11 A3032 RMK AO2
Pressure 30.32 in
Visibility 0.2 miles
Clouds Overcast 200 ft
Dew Point 53 °F
Humidity 99%
Rainfall 0.85 in
Snow Depth Not available.
7:18 AM 5:42 PM
Waxing Crescent, 46% visible
METAR KONP 142215Z AUTO 21012KT 1/4SM -DZ OVC002 11/11 A3032 RMK AO2

10-Day Weather Forecast

Almanac

Astronomy

Feb. 14, 2016 Rise Set
Actual Time
Civil Twilight
Nautical Twilight
Astronomical Twilight
Moon
Length of Visible Light
Length of Day
Tomorrow will be .
, % of the Moon is Illuminated

Today's Extremes

State Highs State Lows

Community

WunderPhotos

Upload Photos

1,892,893 photos uploaded!

WunderBlog® & News

Nearby

Air Quality

  Air Quality AQ Index Pollutant
Not available.

Snow Depth

Station Depth Elevation

Earthquake Activity

City Distance Mag. Time & Date
Minimum magnitude displayed is 2.5.

Coastal Water Temperatures

Place Temperature

Stations

Nearby Weather Stations

Station Location Temp. Windchill Dew Point Humidity Wind Precip. Elev Updated Type
                   

Watches & Warnings

There are currently no watches in effect.